WetterOnline ( https://www.wetteronline.de )

Wetter aktuell Denkendorf

Aktuelles Wetter: Gelbelsee (539m)

6-stündlich | Neueste Meldungen
Ortszeit Temperatur Wetter
So, 19.09. 14:00 15.7° C bedeckt
So, 19.09. 8:00 9.3° C wolkenlos
So, 19.09. 2:00 10.1° C wolkenlos
Sa, 18.09. 20:00 14.0° C wolkenlos
Sa, 18.09. 14:00 17.3° C leicht bewölkt
Sa, 18.09. 8:00 11.2° C bedeckt
Sa, 18.09. 2:00 11.4° C wolkenlos
Fr, 17.09. 20:00 13.7° C bewölkt
Ortszeit Temperatur Wetter
So, 19.09. 17:00 15.2° C bewölkt
So, 19.09. 16:50 15.2° C bewölkt
So, 19.09. 16:40 15.3° C bedeckt
So, 19.09. 16:30 15.8° C bedeckt
So, 19.09. 16:20 15.8° C bedeckt
So, 19.09. 16:10 15.7° C bewölkt
So, 19.09. 16:00 15.9° C bewölkt
So, 19.09. 15:30 16.1° C bewölkt
So, 19.09. 15:00 17.3° C bedeckt
So, 19.09. 14:30 15.9° C bedeckt
So, 19.09. 14:00 15.7° C bedeckt
Ortszeit Relative Feuchte Sichtweite
So, 19.09. 14:00 72% 24 km
So, 19.09. 8:00 95% 28 km
So, 19.09. 2:00 89% 65 km
Sa, 18.09. 20:00 80% 50 km
Sa, 18.09. 14:00 63% 30 km
Sa, 18.09. 8:00 95% 16 km
Sa, 18.09. 2:00 90% 40 km
Fr, 17.09. 20:00 80% 60 km
Ortszeit Relative Feuchte Sichtweite
So, 19.09. 17:00 71% 65 km
So, 19.09. 16:50 71% -
So, 19.09. 16:40 71% -
So, 19.09. 16:30 68% >70 km
So, 19.09. 16:20 68% -
So, 19.09. 16:10 68% -
So, 19.09. 16:00 68% 50 km
So, 19.09. 15:30 66% 45 km
So, 19.09. 15:00 70% 60 km
So, 19.09. 14:30 69% >70 km
So, 19.09. 14:00 72% 24 km
Ortszeit Niederschlagsmenge Niederschlagsart
So, 19.09. 14:00 0.0 l/m2 in 6 Std. -
So, 19.09. 8:00 0.0 l/m2 in 12 Std. -
So, 19.09. 2:00 0.0 l/m2 in 6 Std. -
Sa, 18.09. 20:00 0.0 l/m2 in 12 Std. -
Sa, 18.09. 14:00 0.0 l/m2 in 6 Std. -
Sa, 18.09. 8:00 0.0 l/m2 in 12 Std. -
Sa, 18.09. 2:00 0.0 l/m2 in 6 Std. -
Fr, 17.09. 20:00 0.0 l/m2 in 12 Std. -
Ortszeit Niederschlagsmenge Niederschlagsart
So, 19.09. 17:00 0.0 l/m2 in 1 Std. -
So, 19.09. 16:50 keine Meldung -
So, 19.09. 16:40 keine Meldung -
So, 19.09. 16:30 0.0 l/m2 in 1 Std. -
So, 19.09. 16:20 keine Meldung -
So, 19.09. 16:10 keine Meldung -
So, 19.09. 16:00 0.0 l/m2 in 1 Std. -
So, 19.09. 15:30 0.0 l/m2 in 1 Std. -
So, 19.09. 15:00 0.0 l/m2 in 1 Std. -
So, 19.09. 14:30 0.0 l/m2 in 1 Std. -
So, 19.09. 14:00 0.0 l/m2 in 1 Std. -
Ortszeit Stärke Spitze Richtung
km/h Bft. km/h Grad Sektor
So, 19.09. 14:00 11 2 25 70° O
So, 19.09. 8:00 9 2 19 50° NO
So, 19.09. 2:00 7 2 14 30° NO
Sa, 18.09. 20:00 6 1 20 360° N
Sa, 18.09. 14:00 11 2 25 310° NW
Sa, 18.09. 8:00 4 1 18 280° W
Sa, 18.09. 2:00 7 2 7 290° W
Fr, 17.09. 20:00 0 0 25 - -
Ortszeit Stärke Spitze Richtung
km/h Bft. km/h Grad Sektor
So, 19.09. 17:00 11 2 22 30° NO
So, 19.09. 16:50 11 2 - 30° NO
So, 19.09. 16:40 13 3 - 20° N
So, 19.09. 16:30 11 2 18 20° N
So, 19.09. 16:20 11 2 - 20° N
So, 19.09. 16:10 11 2 - 30° NO
So, 19.09. 16:00 13 3 26 40° NO
So, 19.09. 15:30 14 3 22 20° N
So, 19.09. 15:00 11 2 20 30° NO
So, 19.09. 14:30 11 2 22 30° NO
So, 19.09. 14:00 11 2 18 70° O
Ortszeit Untergrenze Bedeckung Gattung
total tief tief mittel hoch
So, 19.09. 14:00 780 m 8/8 8/8 - - -
So, 19.09. 8:00 - 0/8 0/8 - - -
So, 19.09. 2:00 - 0/8 0/8 - - -
Sa, 18.09. 20:00 - 0/8 0/8 - - -
Sa, 18.09. 14:00 1500 m 3/8 4/8 - - -
Sa, 18.09. 8:00 1500 m 8/8 8/8 - - -
Sa, 18.09. 2:00 - 0/8 0/8 - - -
Fr, 17.09. 20:00 1800 m 7/8 7/8 - - -
Ortszeit Bedeckungsgrad in Achtel und Wolkenuntergrenze
So, 19.09. 17:00 1(990m) 7(1440m)
So, 19.09. 16:50 1(990m) 7(1440m)
So, 19.09. 16:40 1(840m) 1(990m) 8(1410m)
So, 19.09. 16:30 2(750m) 8(1380m)
So, 19.09. 16:20 2(750m) 8(1380m)
So, 19.09. 16:10 2(780m) 7(1350m)
So, 19.09. 16:00 1(780m) 7(1350m)
So, 19.09. 15:30 7(1350m)
So, 19.09. 15:00 8(1320m)
So, 19.09. 14:30 1(660m) 8(1260m)
So, 19.09. 14:00 1(780m) 8(1200m)
Ortszeit Luftdruck NN (hPa) Tendenz (hPa in 3 Std.)
So, 19.09. 14:00 1013 - 0,2
So, 19.09. 8:00 1015 - 0,2
So, 19.09. 2:00 1016 - 0,7
Sa, 18.09. 20:00 1015 - 0,2
Sa, 18.09. 14:00 1016 - 0,4
Sa, 18.09. 8:00 1017 + 0,4
Sa, 18.09. 2:00 1017 + 0,1
Fr, 17.09. 20:00 1016 - 0,2
Ortszeit Luftdruck NN (hPa) Tendenz (hPa in 3 Std.)
So, 19.09. 17:00 1013 - 0,3
So, 19.09. 16:50 1013 keine Meldung
So, 19.09. 16:40 1013 keine Meldung
So, 19.09. 16:30 1013 - 0,5
So, 19.09. 16:20 1013 keine Meldung
So, 19.09. 16:10 1013 keine Meldung
So, 19.09. 16:00 1013 - 0,6
So, 19.09. 15:30 1013 - 0,6
So, 19.09. 15:00 1013 - 0,4
So, 19.09. 14:30 1013 - 0,4
So, 19.09. 14:00 1013 - 0,2
Ortszeit Schneehöhe (cm)
So, 19.09. 14:00 -
So, 19.09. 8:00 -
So, 19.09. 2:00 -
Sa, 18.09. 20:00 -
Sa, 18.09. 14:00 -
Sa, 18.09. 8:00 -
Sa, 18.09. 2:00 -
Fr, 17.09. 20:00 -
Ortszeit Schneehöhe (cm)
So, 19.09. 17:00 -
So, 19.09. 16:50 -
So, 19.09. 16:40 -
So, 19.09. 16:30 -
So, 19.09. 16:20 -
So, 19.09. 16:10 -
So, 19.09. 16:00 -
So, 19.09. 15:30 -
So, 19.09. 15:00 -
So, 19.09. 14:30 -
So, 19.09. 14:00 -
Link zu dieser Seite / Seite empfehlen

Das Wetter in ...